Time;durP1;ratioP1;P1;durP2;ratioP2;P2;SDS_P1;SDS_P2;PMS_P1;PMS_P2;Temp;Humidity;BMP_temperature;BMP_pressure;BME280_temperature;BME280_humidity;BME280_pressure;Samples;Min_cycle;Max_cycle;Signal;HPM_P1;HPM_P2
2021/12/24 00:00:47;;;;;;;6.65;3.40;;;;;;;-9.65;65.00;98188.63;4917844;29;20043;-56
2021/12/24 00:03:13;;;;;;;6.38;3.13;;;;;;;-9.52;64.93;98180.66;4916898;29;20550;-56
2021/12/24 00:05:39;;;;;;;8.52;3.60;;;;;;;-9.54;65.01;98180.78;4918002;29;20052;-55
2021/12/24 00:08:06;;;;;;;4.22;2.40;;;;;;;-9.55;64.92;98189.44;4918417;29;20542;-57
2021/12/24 00:10:32;;;;;;;6.38;3.75;;;;;;;-9.45;65.54;98186.84;4918124;29;20415;-56
2021/12/24 00:13:12;;;;;;;6.13;2.97;;;;;;;-9.41;64.98;98183.03;4916848;29;20449;-55
2021/12/24 00:36:52;;;;;;;7.45;3.38;;;;;;;-9.37;63.80;98163.84;4949353;29;20051;-55
2021/12/24 00:39:18;;;;;;;5.88;3.17;;;;;;;-9.32;64.15;98163.41;4917486;29;20043;-56
2021/12/24 00:41:44;;;;;;;6.20;3.60;;;;;;;-9.34;63.71;98157.63;4916092;29;20039;-53
2021/12/24 00:44:09;;;;;;;7.47;3.70;;;;;;;-9.23;64.52;98160.03;4916140;29;20431;-56
2021/12/24 00:46:35;;;;;;;4.65;2.85;;;;;;;-9.27;63.15;98156.09;4916053;29;20052;-57
2021/12/24 00:49:01;;;;;;;5.63;3.25;;;;;;;-9.21;64.73;98151.22;4917267;29;20048;-57
2021/12/24 00:57:08;;;;;;;8.10;3.67;;;;;;;-9.22;63.31;98130.84;4928977;29;20463;-55
2021/12/24 00:59:34;;;;;;;10.13;3.70;;;;;;;-9.27;64.42;98133.00;4935096;29;20130;-56
2021/12/24 01:02:03;;;;;;;9.05;4.00;;;;;;;-9.30;64.12;98125.59;4918520;29;20180;-54
2021/12/24 01:04:31;;;;;;;7.05;3.15;;;;;;;-9.39;63.51;98127.25;4917555;29;20407;-56
2021/12/24 01:06:57;;;;;;;7.90;3.60;;;;;;;-9.46;64.48;98126.22;4915822;29;20052;-57
2021/12/24 01:09:23;;;;;;;5.78;3.28;;;;;;;-9.58;63.72;98123.03;4917152;29;20063;-57
2021/12/24 01:11:49;;;;;;;5.60;3.13;;;;;;;-9.88;64.64;98119.75;4915576;29;20083;-55
2021/12/24 01:14:15;;;;;;;8.52;4.05;;;;;;;-9.84;65.09;98122.84;4915554;29;20495;-56
2021/12/24 01:16:49;;;;;;;5.95;3.20;;;;;;;-9.83;64.70;98122.69;4899947;29;20044;-56
2021/12/24 01:19:20;;;;;;;4.57;3.28;;;;;;;-9.94;65.46;98122.03;4916652;29;20586;-58
2021/12/24 01:22:27;;;;;;;7.32;3.67;;;;;;;-10.01;65.12;98121.78;4916473;29;20048;-57
2021/12/24 01:24:51;;;;;;;7.03;3.65;;;;;;;-9.96;65.19;98113.69;4915132;29;20048;-57
2021/12/24 01:27:35;;;;;;;4.78;2.85;;;;;;;-9.97;64.76;98117.19;4915426;29;20135;-52
2021/12/24 01:38:17;;;;;;;6.20;3.10;;;;;;;-9.98;65.66;98105.31;4915092;29;20048;-56
2021/12/24 01:43:28;;;;;;;6.47;3.63;;;;;;;-10.02;65.77;98102.22;4915020;29;20040;-55
2021/12/24 01:45:57;;;;;;;7.07;3.85;;;;;;;-10.07;66.05;98097.50;4914854;29;20060;-53
2021/12/24 01:48:23;;;;;;;8.93;3.42;;;;;;;-10.03;66.36;98102.34;4930784;29;20076;-53
2021/12/24 01:50:51;;;;;;;5.75;3.30;;;;;;;-9.95;66.03;98098.16;4916196;29;20127;-52
2021/12/24 01:53:23;;;;;;;5.03;2.55;;;;;;;-9.78;64.80;98085.56;4929941;29;20055;-52
2021/12/24 01:55:50;;;;;;;;;;;;;;;-9.82;65.06;98079.91;4934083;29;20043;-52
2021/12/24 01:58:21;;;;;;;4.82;2.60;;;;;;;-9.75;64.81;98090.41;4934031;29;19923;-55
2021/12/24 02:00:50;;;;;;;5.70;3.20;;;;;;;-9.81;65.19;98090.97;4933227;29;20058;-56
2021/12/24 02:03:16;;;;;;;5.47;2.97;;;;;;;-9.79;65.22;98095.03;4934819;29;20040;-57
2021/12/24 02:05:43;;;;;;;6.25;3.33;;;;;;;-9.80;65.07;98095.16;4933700;29;20146;-56
2021/12/24 02:08:12;;;;;;;7.47;3.15;;;;;;;-9.77;65.56;98085.41;4933033;29;20043;-54
2021/12/24 02:10:39;;;;;;;5.38;3.33;;;;;;;-9.72;64.48;98087.56;4929693;29;20040;-53
2021/12/24 02:13:24;;;;;;;7.15;3.60;;;;;;;-9.77;64.75;98094.88;4915428;29;20060;-51
2021/12/24 02:28:19;;;;;;;9.10;3.75;;;;;;;-9.67;64.47;98083.63;4949263;29;20088;-56
2021/12/24 02:29:16;;;;;;;6.78;3.42;;;;;;;-9.58;64.50;98074.28;4948651;29;20063;-56
2021/12/24 02:31:43;;;;;;;5.47;3.30;;;;;;;-9.53;64.52;98066.16;4933162;29;20090;-57
2021/12/24 02:34:09;;;;;;;5.40;3.53;;;;;;;-9.45;64.30;98064.47;4932680;29;20106;-55
2021/12/24 02:36:35;;;;;;;7.13;3.70;;;;;;;-9.49;64.60;98065.72;4933121;29;20541;-55
2021/12/24 02:39:03;;;;;;;5.78;3.33;;;;;;;-9.37;64.36;98066.34;4934306;29;20043;-56
2021/12/24 02:41:28;;;;;;;7.55;3.75;;;;;;;-9.41;64.47;98065.00;4934430;29;20059;-56
2021/12/24 02:43:54;;;;;;;5.47;3.30;;;;;;;-9.35;64.45;98067.03;4934162;29;20138;-58
2021/12/24 02:46:53;;;;;;;5.70;3.42;;;;;;;-9.18;63.98;98061.09;4934218;29;20491;-57
2021/12/24 02:54:52;;;;;;;5.97;3.58;;;;;;;-9.44;64.29;98040.47;4933975;29;20048;-57
2021/12/24 02:57:21;;;;;;;6.18;3.35;;;;;;;-9.32;64.31;98038.50;4932921;29;20058;-58
2021/12/24 02:59:58;;;;;;;7.28;4.07;;;;;;;-9.19;63.50;98025.31;4932646;29;20040;-56
2021/12/24 03:02:25;;;;;;;5.85;3.50;;;;;;;-9.06;64.09;98019.81;4917104;29;20048;-55
2021/12/24 03:04:51;;;;;;;8.88;4.03;;;;;;;-9.14;64.54;98015.41;4932888;29;20089;-56
2021/12/24 03:07:17;;;;;;;8.27;4.05;;;;;;;-9.11;63.73;98015.13;4932852;29;20576;-55
2021/12/24 03:09:43;;;;;;;7.88;4.00;;;;;;;-9.06;62.77;98012.09;4914886;29;20044;-57
2021/12/24 03:12:09;;;;;;;5.53;3.45;;;;;;;-8.95;63.35;98011.88;4933941;29;20107;-58
2021/12/24 03:14:35;;;;;;;14.75;5.85;;;;;;;-8.87;62.45;98009.41;4948519;29;20052;-57
2021/12/24 03:17:06;;;;;;;8.27;4.28;;;;;;;-8.98;63.00;98000.16;4930828;29;20050;-56
2021/12/24 03:19:33;;;;;;;8.88;4.15;;;;;;;-8.95;63.74;97989.56;4913470;29;20040;-55
2021/12/24 03:24:39;;;;;;;5.20;3.22;;;;;;;-8.93;62.87;97987.69;4915026;29;20040;-56
2021/12/24 03:27:07;;;;;;;8.07;3.97;;;;;;;-9.08;63.42;97994.28;4917128;29;20052;-55
2021/12/24 03:29:34;;;;;;;4.85;3.40;;;;;;;-8.99;63.02;97987.47;4918787;29;20050;-56
2021/12/24 03:32:01;;;;;;;7.15;3.38;;;;;;;-8.99;63.43;97993.41;4933742;29;20048;-55
2021/12/24 03:34:27;;;;;;;8.63;4.45;;;;;;;-8.92;62.90;97989.28;4936143;29;20510;-54
2021/12/24 03:36:53;;;;;;;9.45;4.13;;;;;;;-8.84;62.90;97982.63;4951729;29;20395;-57
2021/12/24 03:39:27;;;;;;;6.28;3.70;;;;;;;-8.80;62.60;97971.88;4936605;29;20048;-53
2021/12/24 03:41:53;;;;;;;6.30;3.75;;;;;;;-8.95;61.99;97974.16;4936304;29;20524;-58
2021/12/24 03:44:20;;;;;;;8.95;4.10;;;;;;;-9.01;63.33;97972.19;4920207;29;20083;-57
2021/12/24 03:52:49;;;;;;;11.57;4.82;;;;;;;-9.00;63.67;97971.25;4936121;29;20434;-56
2021/12/24 03:55:09;;;;;;;10.20;3.97;;;;;;;-9.12;62.76;97976.75;4935739;29;20039;-56
2021/12/24 03:57:40;;;;;;;6.45;3.40;;;;;;;-9.21;63.98;97973.31;4936025;29;20462;-55
2021/12/24 04:00:32;;;;;;;7.65;4.10;;;;;;;-9.02;63.24;97970.59;4938759;28;20055;-57
2021/12/24 04:03:18;;;;;;;5.13;3.30;;;;;;;-8.96;63.76;97969.19;4927988;29;20056;-58
2021/12/24 04:05:46;;;;;;;5.85;3.60;;;;;;;-8.96;62.80;97964.06;4914759;29;20060;-56
2021/12/24 04:08:31;;;;;;;8.70;3.80;;;;;;;-8.86;62.84;97964.78;4915563;29;20519;-57
2021/12/24 04:11:19;;;;;;;5.93;3.60;;;;;;;-8.87;62.58;97962.38;4913613;29;20055;-57
2021/12/24 04:13:46;;;;;;;7.25;3.80;;;;;;;-9.02;63.13;97962.09;4899247;29;20661;-54
2021/12/24 04:16:13;;;;;;;6.43;3.80;;;;;;;-8.94;63.25;97952.69;4931228;29;20519;-57
2021/12/24 04:27:16;;;;;;;6.18;3.38;;;;;;;-9.00;64.48;97949.91;4912021;29;20044;-57
2021/12/24 04:29:42;;;;;;;8.10;3.90;;;;;;;-9.07;64.51;97942.00;4896307;29;20511;-56
2021/12/24 04:32:18;;;;;;;7.53;3.88;;;;;;;-9.07;64.49;97946.31;4895741;29;20052;-56
2021/12/24 04:35:16;;;;;;;7.78;3.78;;;;;;;-9.05;64.76;97950.34;4923786;29;20095;-56
2021/12/24 04:51:31;;;;;;;10.85;4.25;;;;;;;-9.31;65.47;97919.50;4932145;29;20045;-58
2021/12/24 05:04:55;;;;;;;7.50;4.20;;;;;;;-9.10;64.87;97918.38;4928859;29;20040;-58
2021/12/24 05:10:08;;;;;;;7.90;4.22;;;;;;;-9.11;63.98;97916.78;4927783;29;20052;-57
2021/12/24 05:12:34;;;;;;;8.88;3.85;;;;;;;-9.21;64.35;97917.63;4914345;29;20617;-58
2021/12/24 05:15:07;;;;;;;8.10;3.42;;;;;;;-9.20;64.52;97916.72;4912239;29;20044;-58
2021/12/24 05:23:31;;;;;;;9.07;3.75;;;;;;;-8.98;63.56;97910.28;4928231;29;20040;-57
2021/12/24 05:25:58;;;;;;;9.43;4.32;;;;;;;-9.05;63.78;97909.28;4928208;29;20052;-57
2021/12/24 05:28:26;;;;;;;9.98;4.50;;;;;;;-9.18;63.91;97909.66;4911222;29;20063;-57
2021/12/24 05:30:52;;;;;;;10.50;4.30;;;;;;;-9.17;63.64;97903.56;4911741;29;20521;-59
2021/12/24 05:33:18;;;;;;;8.00;4.10;;;;;;;-9.02;64.72;97915.88;4910656;29;20064;-57
2021/12/24 05:35:45;;;;;;;9.15;4.88;;;;;;;-9.00;64.74;97914.78;4922095;29;20474;-57
2021/12/24 05:38:12;;;;;;;12.40;4.45;;;;;;;-8.84;63.04;97908.13;4945960;29;20039;-58
2021/12/24 05:40:39;;;;;;;9.65;4.13;;;;;;;-8.96;63.49;97913.50;4931010;29;20526;-58
2021/12/24 05:43:05;;;;;;;8.23;4.63;;;;;;;-8.85;63.13;97909.06;4931653;29;20048;-58
2021/12/24 05:45:31;;;;;;;7.85;4.07;;;;;;;-8.79;63.83;97911.06;4929339;29;20130;-57
2021/12/24 05:48:29;;;;;;;11.50;5.00;;;;;;;-8.57;62.71;97910.53;4950769;28;20064;-60
2021/12/24 05:51:04;;;;;;;8.27;4.63;;;;;;;-8.44;62.08;97906.75;4931109;29;20051;-57
2021/12/24 05:53:46;;;;;;;9.45;4.68;;;;;;;-8.50;61.85;97892.75;4925075;29;20418;-58
2021/12/24 05:56:16;;;;;;;7.70;4.43;;;;;;;-8.59;63.25;97912.44;4929303;29;20055;-59
2021/12/24 05:58:45;;;;;;;9.82;4.75;;;;;;;-8.65;63.04;97905.34;4928786;29;20399;-57
2021/12/24 06:01:12;;;;;;;12.30;5.07;;;;;;;-8.52;62.84;97910.91;4913763;29;20075;-57
2021/12/24 06:03:47;;;;;;;6.57;3.65;;;;;;;-8.55;63.27;97907.84;4921935;29;20058;-57
2021/12/24 06:06:13;;;;;;;10.88;4.55;;;;;;;-8.58;62.50;97918.41;4928138;29;20107;-61
2021/12/24 06:08:39;;;;;;;10.20;5.13;;;;;;;-8.65;62.90;97915.63;4928353;29;20039;-59
2021/12/24 06:11:05;;;;;;;12.30;4.82;;;;;;;-8.71;63.90;97911.91;4912439;29;20063;-58
2021/12/24 06:13:31;;;;;;;7.05;3.85;;;;;;;-8.61;63.43;97922.09;4910863;29;20080;-58
2021/12/24 06:15:57;;;;;;;9.73;5.05;;;;;;;-8.46;63.67;97909.47;4911947;29;20044;-57
2021/12/24 06:18:26;;;;;;;10.48;4.93;;;;;;;-8.54;62.48;97912.00;4913795;29;20039;-58
2021/12/24 06:20:54;;;;;;;10.23;3.78;;;;;;;-8.59;63.24;97907.31;4913663;29;20036;-57
2021/12/24 06:23:22;;;;;;;10.32;4.57;;;;;;;-8.56;63.22;97896.75;4928955;29;20098;-59
2021/12/24 06:25:49;;;;;;;10.23;3.80;;;;;;;-8.47;62.77;97900.97;4930071;29;20052;-57
2021/12/24 06:28:14;;;;;;;8.35;4.22;;;;;;;-8.50;63.36;97903.03;4930183;29;20126;-58
2021/12/24 06:30:41;;;;;;;5.90;3.83;;;;;;;-8.55;63.21;97898.34;4927390;29;20119;-56
2021/12/24 06:33:08;;;;;;;7.65;3.78;;;;;;;-8.41;63.59;97909.00;4931042;29;20056;-56
2021/12/24 06:35:34;;;;;;;8.70;4.65;;;;;;;-8.52;63.16;97905.75;4913554;29;20055;-56
2021/12/24 06:38:01;;;;;;;8.75;4.80;;;;;;;-8.35;63.56;97908.38;4911634;29;20133;-59
2021/12/24 06:40:27;;;;;;;11.85;4.90;;;;;;;-8.33;63.46;97899.53;4879276;29;20047;-56
2021/12/24 06:42:53;;;;;;;11.13;4.60;;;;;;;-8.32;63.34;97908.09;4909495;29;20419;-59
2021/12/24 06:45:23;;;;;;;10.18;4.38;;;;;;;-8.25;63.37;97907.28;4912184;29;20482;-56
2021/12/24 06:47:53;;;;;;;8.13;4.18;;;;;;;-8.07;62.33;97916.69;4895793;29;20487;-57
2021/12/24 06:50:19;;;;;;;11.15;5.35;;;;;;;-8.15;62.47;97907.16;4927627;29;20058;-57
2021/12/24 06:52:45;;;;;;;12.20;4.32;;;;;;;-8.13;62.01;97909.59;4910614;29;20058;-57
2021/12/24 06:55:12;;;;;;;10.48;4.30;;;;;;;-8.13;62.77;97897.53;4916895;29;20047;-54
2021/12/24 06:57:41;;;;;;;9.88;4.28;;;;;;;-8.06;63.98;97901.13;4883391;29;20051;-57
2021/12/24 07:00:09;;;;;;;9.15;4.65;;;;;;;-7.98;62.96;97905.47;4928798;29;20051;-53
2021/12/24 07:02:35;;;;;;;8.75;4.43;;;;;;;-8.00;62.79;97902.22;4945635;29;20617;-57
2021/12/24 07:05:02;;;;;;;8.10;4.18;;;;;;;-8.29;63.78;97905.22;4945065;29;20486;-61
2021/12/24 07:07:29;;;;;;;10.82;4.70;;;;;;;-8.21;64.21;97894.94;4931028;29;20044;-60
2021/12/24 07:09:55;;;;;;;11.32;4.80;;;;;;;-8.12;63.82;97906.84;4911890;29;20426;-58
2021/12/24 07:12:20;;;;;;;8.48;4.55;;;;;;;-7.97;62.39;97901.13;4909123;29;20055;-57
2021/12/24 07:14:49;;;;;;;8.57;4.40;;;;;;;-7.96;63.06;97906.13;4918891;29;20054;-52
2021/12/24 07:17:14;;;;;;;11.95;5.40;;;;;;;-7.75;62.49;97907.47;4930789;29;20050;-54
2021/12/24 07:19:40;;;;;;;7.10;4.13;;;;;;;-7.70;62.08;97907.81;4931124;29;20048;-57
2021/12/24 07:22:07;;;;;;;10.13;5.07;;;;;;;-7.72;62.46;97907.16;4943567;29;20135;-53
2021/12/24 07:24:34;;;;;;;10.23;4.68;;;;;;;-7.73;62.61;97898.63;4912763;29;20050;-55
2021/12/24 07:27:03;;;;;;;8.40;4.65;;;;;;;-7.80;61.98;97911.31;4929565;29;20350;-51
2021/12/24 07:29:29;;;;;;;13.80;5.35;;;;;;;-7.67;62.45;97900.56;4893013;29;20044;-55
2021/12/24 07:31:55;;;;;;;11.35;4.85;;;;;;;-7.67;61.83;97904.91;4906610;29;20052;-54
2021/12/24 07:34:21;;;;;;;12.93;5.35;;;;;;;-7.73;62.22;97890.91;4927497;29;20502;-55
2021/12/24 07:36:47;;;;;;;9.15;4.95;;;;;;;-7.62;62.24;97890.59;4928449;29;20067;-55
2021/12/24 07:39:13;;;;;;;9.45;5.13;;;;;;;-7.51;62.00;97888.69;4928863;29;20528;-55
2021/12/24 07:41:39;;;;;;;8.50;4.15;;;;;;;-7.42;62.00;97898.03;4930517;29;20051;-51
2021/12/24 07:44:07;;;;;;;9.65;4.70;;;;;;;-7.35;61.53;97888.72;4894402;29;20042;-54
2021/12/24 07:46:43;;;;;;;10.77;4.88;;;;;;;-7.24;61.85;97890.94;4911841;29;20100;-52
2021/12/24 07:49:29;;;;;;;8.70;4.68;;;;;;;-7.32;60.91;97885.81;4910991;29;20059;-54
2021/12/24 07:52:17;;;;;;;11.15;5.72;;;;;;;-7.58;62.06;97889.31;4918598;29;20482;-52
2021/12/24 07:54:45;;;;;;;10.00;5.72;;;;;;;-7.54;62.20;97884.66;4912293;29;20098;-53
2021/12/24 07:57:13;;;;;;;11.35;5.15;;;;;;;-7.24;61.38;97885.81;4911094;29;20491;-54
2021/12/24 07:59:41;;;;;;;11.68;5.22;;;;;;;-7.13;60.34;97882.91;4912497;29;20044;-53
2021/12/24 08:02:14;;;;;;;11.00;5.28;;;;;;;-7.04;60.87;97882.91;4911818;29;20055;-54
2021/12/24 08:04:41;;;;;;;12.10;5.28;;;;;;;-7.07;59.83;97886.59;4909337;29;20048;-55
2021/12/24 08:07:07;;;;;;;10.52;4.93;;;;;;;-7.07;60.85;97884.03;4913751;29;20052;-52
2021/12/24 08:09:36;;;;;;;11.55;5.50;;;;;;;-7.04;60.29;97883.72;4929642;29;20455;-54
2021/12/24 08:12:05;;;;;;;10.70;4.82;;;;;;;-7.05;60.43;97883.88;4932506;29;20085;-57
2021/12/24 08:14:31;;;;;;;12.80;5.85;;;;;;;-7.17;60.18;97876.47;4934174;29;20044;-57
2021/12/24 08:16:57;;;;;;;9.45;5.70;;;;;;;-7.23;60.16;97869.41;4931657;29;20094;-55
2021/12/24 08:19:23;;;;;;;12.18;5.40;;;;;;;-7.02;61.27;97880.97;4915027;29;20048;-58
2021/12/24 08:21:48;;;;;;;11.95;4.88;;;;;;;-6.87;60.26;97879.34;4919038;29;20118;-59
2021/12/24 08:24:15;;;;;;;9.60;5.07;;;;;;;-6.79;60.08;97874.19;4949108;29;20051;-58
2021/12/24 08:26:42;;;;;;;9.40;4.68;;;;;;;-6.76;59.80;97876.44;4930647;29;20044;-57
2021/12/24 08:29:08;;;;;;;10.75;5.57;;;;;;;-6.67;59.78;97883.19;4934675;29;20047;-56
2021/12/24 08:31:35;;;;;;;11.52;5.75;;;;;;;-6.69;59.51;97879.94;4934344;29;20047;-55
2021/12/24 08:34:01;;;;;;;9.15;4.80;;;;;;;-6.80;60.10;97875.13;4926629;29;20502;-55
2021/12/24 08:36:27;;;;;;;13.27;5.72;;;;;;;-6.92;60.14;97876.44;4915120;29;20111;-53
2021/12/24 08:38:55;;;;;;;10.48;5.53;;;;;;;-7.11;60.70;97878.41;4915351;29;20036;-56
2021/12/24 08:41:22;;;;;;;11.80;6.05;;;;;;;-7.07;61.08;97867.78;4914836;29;20044;-57
2021/12/24 08:43:48;;;;;;;12.15;5.65;;;;;;;-7.09;61.28;97875.66;4897497;29;20557;-55
2021/12/24 08:46:14;;;;;;;10.43;5.90;;;;;;;-7.05;60.71;97861.50;4915610;29;20131;-56
2021/12/24 08:48:40;;;;;;;12.23;5.50;;;;;;;-7.00;61.00;97858.41;4913808;29;20052;-55
2021/12/24 08:51:06;;;;;;;12.52;5.43;;;;;;;-6.87;60.19;97858.75;4915886;29;20400;-53
2021/12/24 08:53:31;;;;;;;9.68;4.93;;;;;;;-6.83;60.41;97854.06;4912117;29;20241;-57
2021/12/24 08:55:57;;;;;;;10.45;6.00;;;;;;;-6.90;60.44;97861.63;4911382;29;20059;-56
2021/12/24 08:58:23;;;;;;;12.50;5.45;;;;;;;-6.91;60.65;97847.97;4911431;29;20048;-57
2021/12/24 09:00:49;;;;;;;12.07;5.47;;;;;;;-7.05;60.77;97840.91;4913664;29;20051;-58
2021/12/24 09:03:15;;;;;;;12.77;5.47;;;;;;;-7.22;60.90;97858.13;4912748;29;20054;-57
2021/12/24 09:05:41;;;;;;;11.27;5.13;;;;;;;-7.10;60.78;97850.88;4914400;29;20055;-57
2021/12/24 09:08:06;;;;;;;10.48;5.45;;;;;;;-7.10;60.83;97846.53;4914637;29;20052;-56
2021/12/24 09:10:32;;;;;;;12.80;6.45;;;;;;;-6.97;61.15;97840.88;4915232;29;20075;-57
2021/12/24 09:12:58;;;;;;;10.93;5.57;;;;;;;-6.89;60.76;97837.47;4912758;29;20055;-55
2021/12/24 09:15:30;;;;;;;11.05;5.43;;;;;;;-6.99;59.74;97832.50;4914867;29;20044;-56
2021/12/24 09:18:00;;;;;;;11.38;6.00;;;;;;;-6.79;60.21;97842.44;4913859;29;20048;-55
2021/12/24 09:20:33;;;;;;;11.57;5.57;;;;;;;-6.72;59.61;97833.91;4913098;29;20048;-56
2021/12/24 09:23:00;;;;;;;15.50;7.20;;;;;;;-6.89;60.00;97835.69;4911961;29;20499;-55
2021/12/24 09:25:27;;;;;;;9.88;5.78;;;;;;;-6.93;60.23;97836.22;4896656;29;20055;-57
2021/12/24 09:27:54;;;;;;;15.57;6.30;;;;;;;-7.07;60.59;97832.53;4912741;29;20076;-56
2021/12/24 09:30:20;;;;;;;12.23;6.18;;;;;;;-6.98;60.41;97828.16;4904941;29;20091;-58
2021/12/24 09:32:46;;;;;;;13.35;6.07;;;;;;;-6.87;60.20;97826.03;4931805;29;20131;-58
2021/12/24 09:35:12;;;;;;;10.73;6.03;;;;;;;-6.80;59.43;97835.69;4919300;29;20490;-56
2021/12/24 09:37:39;;;;;;;14.63;6.35;;;;;;;-6.83;60.34;97830.88;4914433;29;20418;-50
2021/12/24 09:40:07;;;;;;;14.23;6.38;;;;;;;-6.76;59.56;97824.09;4894388;29;20096;-59
2021/12/24 09:42:34;;;;;;;11.43;6.65;;;;;;;-6.79;59.63;97820.06;4894683;29;20040;-56
2021/12/24 09:45:00;;;;;;;12.20;5.55;;;;;;;-6.71;59.20;97819.22;4895545;29;20044;-57
2021/12/24 09:47:26;;;;;;;13.77;5.95;;;;;;;-6.83;59.40;97818.78;4896885;29;20068;-56
2021/12/24 09:49:52;;;;;;;18.95;6.57;;;;;;;-6.80;60.25;97815.06;4896682;29;20066;-58
2021/12/24 09:52:19;;;;;;;14.63;6.68;;;;;;;-6.85;60.82;97815.59;4913262;29;20056;-58
2021/12/24 09:54:47;;;;;;;11.35;5.72;;;;;;;-6.80;60.41;97818.44;4911969;29;20918;-59
2021/12/24 09:57:14;;;;;;;17.30;7.00;;;;;;;-6.77;60.69;97817.31;4894365;29;20052;-53
2021/12/24 09:59:41;;;;;;;12.23;7.15;;;;;;;-6.63;60.17;97821.78;4896641;29;20048;-55
2021/12/24 10:02:16;;;;;;;13.27;6.65;;;;;;;-6.67;60.21;97811.00;4912190;29;20048;-58
2021/12/24 10:04:43;;;;;;;13.95;5.78;;;;;;;-6.67;59.00;97810.22;4911077;29;20036;-61
2021/12/24 10:07:11;;;;;;;16.15;7.05;;;;;;;-6.67;59.79;97805.88;4912102;29;20052;-57
2021/12/24 10:09:42;;;;;;;14.73;6.05;;;;;;;-6.56;59.28;97802.09;4912153;29;20044;-55
2021/12/24 10:12:14;;;;;;;10.32;5.60;;;;;;;-6.73;58.92;97798.81;4910980;29;20055;-56
2021/12/24 10:14:57;;;;;;;11.80;6.03;;;;;;;-6.84;60.60;97800.94;4911071;29;20048;-57
2021/12/24 10:17:27;;;;;;;15.73;6.93;;;;;;;-6.91;61.21;97796.44;4914591;29;20096;-52
2021/12/24 10:19:56;;;;;;;13.15;6.78;;;;;;;-6.71;59.93;97796.03;4912464;29;20048;-57
2021/12/24 10:22:22;;;;;;;11.73;6.67;;;;;;;-6.69;60.09;97797.47;4913441;29;20519;-55
2021/12/24 10:25:08;;;;;;;16.08;6.65;;;;;;;-6.59;59.30;97789.53;4912234;29;20036;-56
2021/12/24 10:27:34;;;;;;;12.48;5.80;;;;;;;-6.63;59.68;97790.88;4912325;29;20535;-55
2021/12/24 10:30:15;;;;;;;13.15;6.40;;;;;;;-6.77;60.62;97771.75;4913900;29;20510;-54
2021/12/24 10:32:41;;;;;;;10.80;4.93;;;;;;;-6.86;60.15;97791.56;4909604;29;20583;-56
2021/12/24 10:35:22;;;;;;;14.13;6.03;;;;;;;-6.65;59.94;97783.31;4913243;29;20140;-56
2021/12/24 10:38:15;;;;;;;16.38;6.55;;;;;;;-6.65;60.03;97787.63;4931607;29;20095;-56
2021/12/24 10:40:58;;;;;;;17.05;6.97;;;;;;;-6.74;60.28;97788.66;4931119;29;20518;-57
2021/12/24 10:43:36;;;;;;;12.95;5.45;;;;;;;-6.71;59.94;97791.69;4931448;29;20134;-54
2021/12/24 10:46:09;;;;;;;11.55;5.95;;;;;;;-6.64;59.90;97797.00;4927671;29;20154;-57
2021/12/24 10:48:35;;;;;;;13.65;6.50;;;;;;;-6.70;59.92;97785.59;4913782;29;20052;-55
2021/12/24 10:51:06;;;;;;;12.82;6.72;;;;;;;-6.75;60.82;97792.19;4912593;29;20107;-58
2021/12/24 10:54:02;;;;;;;10.48;5.05;;;;;;;-6.61;59.87;97795.88;4914204;29;20043;-51
2021/12/24 10:56:27;;;;;;;15.35;6.40;;;;;;;-6.69;59.93;97794.91;4910050;29;20050;-55
2021/12/24 10:58:54;;;;;;;13.45;7.07;;;;;;;-6.59;60.52;97779.22;4912247;29;20474;-58
2021/12/24 11:01:19;;;;;;;13.93;7.35;;;;;;;-6.51;59.71;97786.94;4913449;29;20052;-56
2021/12/24 11:03:46;;;;;;;13.48;7.03;;;;;;;-6.67;60.09;97780.09;4911072;29;20095;-57
2021/12/24 11:06:15;;;;;;;12.23;6.60;;;;;;;-6.72;60.13;97790.09;4911820;29;20080;-57
2021/12/24 11:08:53;;;;;;;15.32;7.18;;;;;;;-6.50;60.17;97791.16;4911382;29;20169;-54
2021/12/24 11:11:20;;;;;;;15.32;6.97;;;;;;;-6.48;59.71;97784.03;4910960;29;20052;-57
2021/12/24 11:13:47;;;;;;;12.40;6.72;;;;;;;-6.54;59.99;97784.69;4915331;29;20103;-56
2021/12/24 11:16:21;;;;;;;13.43;6.60;;;;;;;-6.69;60.09;97776.06;4946175;29;20320;-57
2021/12/24 11:18:56;;;;;;;10.50;6.22;;;;;;;-6.54;60.16;97776.16;4918913;29;20188;-56
2021/12/24 11:21:26;;;;;;;13.02;6.80;;;;;;;-6.46;59.74;97776.13;4929318;29;20098;-58
2021/12/24 11:23:53;;;;;;;10.93;6.05;;;;;;;-6.37;58.84;97771.75;4944759;29;20478;-57
2021/12/24 11:26:27;;;;;;;14.30;6.20;;;;;;;-6.52;59.40;97767.31;4931506;29;20529;-56
2021/12/24 11:28:54;;;;;;;12.40;5.97;;;;;;;-6.59;59.46;97773.28;4912643;29;20043;-56
2021/12/24 11:31:23;;;;;;;11.63;6.47;;;;;;;-6.59;59.58;97756.03;4932527;29;20067;-56
2021/12/24 11:33:51;;;;;;;15.02;7.18;;;;;;;-6.59;60.31;97755.25;4930946;29;20336;-57
2021/12/24 11:36:23;;;;;;;23.08;10.18;;;;;;;-6.55;60.08;97757.31;4896091;29;20071;-58
2021/12/24 11:38:52;;;;;;;14.30;5.70;;;;;;;-6.46;59.74;97758.88;4912994;29;20131;-56
2021/12/24 11:41:20;;;;;;;14.77;6.65;;;;;;;-6.68;59.66;97744.97;4911378;29;20127;-56
2021/12/24 11:43:49;;;;;;;13.30;5.60;;;;;;;-6.59;60.31;97755.25;4913584;29;20522;-55
2021/12/24 11:46:17;;;;;;;13.85;6.90;;;;;;;-6.51;60.92;97762.94;4911557;29;20529;-56
2021/12/24 11:48:44;;;;;;;12.68;6.65;;;;;;;-6.44;59.89;97764.69;4915367;29;20127;-57
2021/12/24 11:51:15;;;;;;;22.48;9.32;;;;;;;-6.45;60.13;97759.69;4916183;29;20123;-55
2021/12/24 11:53:41;;;;;;;14.77;6.13;;;;;;;-6.52;60.32;97751.03;4934240;29;20529;-58
2021/12/24 11:56:09;;;;;;;13.07;6.30;;;;;;;-6.51;60.52;97761.16;4934057;29;20379;-58
2021/12/24 11:58:44;;;;;;;11.55;6.55;;;;;;;-6.60;60.33;97756.22;4932031;29;20067;-57
2021/12/24 12:01:10;;;;;;;13.68;6.40;;;;;;;-6.67;60.95;97756.09;4933159;29;20118;-55
2021/12/24 12:03:40;;;;;;;12.00;7.22;;;;;;;-6.69;60.61;97760.59;4933962;29;20142;-58
2021/12/24 12:06:09;;;;;;;;;;;;;;;-6.60;60.48;97761.38;4933107;29;20088;-54
2021/12/24 12:08:39;;;;;;;12.00;6.35;;;;;;;-6.73;60.22;97751.63;4935389;29;19974;-58
2021/12/24 12:11:14;;;;;;;18.23;7.10;;;;;;;-6.80;61.17;97758.38;4921889;29;20056;-54
2021/12/24 12:13:48;;;;;;;15.45;6.80;;;;;;;-6.91;61.44;97775.00;4898981;29;20123;-57
2021/12/24 12:17:05;;;;;;;14.27;6.30;;;;;;;-7.06;61.69;97758.63;4927154;29;20048;-57
2021/12/24 12:22:44;;;;;;;12.95;6.72;;;;;;;-7.09;61.77;97764.91;4928401;29;20537;-56
2021/12/24 12:25:12;;;;;;;11.73;6.32;;;;;;;-7.02;61.43;97762.50;4920744;29;20056;-59
2021/12/24 12:27:56;;;;;;;13.82;6.78;;;;;;;-6.96;60.91;97761.84;4929170;29;20043;-59
2021/12/24 12:30:28;;;;;;;14.50;7.05;;;;;;;-7.00;61.55;97758.78;4928379;29;20051;-59
2021/12/24 12:33:11;;;;;;;16.75;6.90;;;;;;;-6.92;60.82;97753.59;4923620;29;20058;-59
2021/12/24 12:35:56;;;;;;;12.73;6.38;;;;;;;-6.88;61.06;97752.31;4931901;29;20039;-58
2021/12/24 12:38:28;;;;;;;14.00;6.88;;;;;;;-7.00;61.19;97748.50;4920155;29;20119;-59
2021/12/24 12:41:06;;;;;;;16.95;6.82;;;;;;;-6.98;60.71;97743.97;4922245;29;20059;-59
2021/12/24 12:43:32;;;;;;;17.30;7.68;;;;;;;-7.01;60.92;97746.06;4947141;29;20039;-58
2021/12/24 12:46:02;;;;;;;15.10;6.75;;;;;;;-6.87;60.43;97748.75;4928636;29;20102;-58
2021/12/24 12:48:42;;;;;;;15.40;6.67;;;;;;;-6.92;60.72;97734.75;4920367;29;20050;-57
2021/12/24 12:51:08;;;;;;;14.18;6.25;;;;;;;-7.20;62.00;97737.75;4932082;29;20054;-55
2021/12/24 12:53:36;;;;;;;14.93;7.75;;;;;;;-7.22;61.02;97744.84;4945009;29;20043;-60
2021/12/24 12:56:08;;;;;;;14.00;6.85;;;;;;;-7.30;62.10;97734.53;4930050;29;20458;-58
2021/12/24 12:58:35;;;;;;;17.60;6.80;;;;;;;-7.26;62.05;97740.16;4925714;29;20118;-54
2021/12/24 13:01:07;;;;;;;12.45;7.32;;;;;;;-7.23;62.00;97742.44;4913461;29;20044;-58
2021/12/24 13:03:34;;;;;;;14.13;6.97;;;;;;;-7.10;61.53;97743.50;4928185;29;20051;-60
2021/12/24 13:06:06;;;;;;;19.05;7.95;;;;;;;-7.15;61.17;97735.47;4926913;29;20139;-59
2021/12/24 13:08:37;;;;;;;15.35;7.75;;;;;;;-7.14;62.02;97731.16;4912156;29;20079;-53
2021/12/24 13:11:17;;;;;;;18.15;7.88;;;;;;;-7.22;61.52;97728.59;4913681;29;20044;-57
2021/12/24 13:14:01;;;;;;;17.92;7.88;;;;;;;-7.28;61.26;97724.09;4931786;29;20410;-57
2021/12/24 13:16:35;;;;;;;13.52;6.47;;;;;;;-7.38;61.04;97698.53;4913732;29;20051;-55
2021/12/24 13:19:25;;;;;;;20.02;8.45;;;;;;;-7.30;61.82;97721.69;4915379;29;20050;-56
2021/12/24 13:24:53;;;;;;;22.50;7.90;;;;;;;-7.19;61.36;97720.53;4912060;29;20064;-57
2021/12/24 13:27:25;;;;;;;17.25;7.65;;;;;;;-7.27;61.42;97698.19;4913345;29;20060;-56
2021/12/24 13:30:13;;;;;;;16.02;7.20;;;;;;;-7.35;61.88;97714.47;4913425;29;20600;-55
2021/12/24 13:32:43;;;;;;;17.35;8.00;;;;;;;-7.16;61.84;97702.19;4917577;29;20151;-58